createdAt,value
2018-03-01T00:01:55.276Z,55.00
2018-03-01T00:04:21.602Z,54.60
2018-03-01T00:06:47.961Z,54.40
2018-03-01T00:09:14.240Z,54.40
2018-03-01T00:11:40.567Z,54.50
2018-03-01T00:14:07.259Z,54.60
2018-03-01T00:16:33.556Z,54.60
2018-03-01T00:19:00.121Z,54.60
2018-03-01T00:21:26.484Z,54.70
2018-03-01T00:23:53.512Z,54.60
2018-03-01T00:26:19.791Z,54.60
2018-03-01T00:28:46.131Z,54.40
2018-03-01T00:31:12.446Z,54.50
2018-03-01T00:33:38.707Z,54.40
2018-03-01T00:36:04.968Z,54.40
2018-03-01T00:38:32.002Z,54.50
2018-03-01T00:40:58.585Z,54.50
2018-03-01T00:43:24.924Z,54.60
2018-03-01T00:45:51.270Z,54.60
2018-03-01T00:48:17.554Z,54.60
2018-03-01T00:50:43.835Z,54.60
2018-03-01T00:53:10.152Z,54.40
2018-03-01T00:55:36.431Z,54.40
2018-03-01T00:58:02.750Z,54.60
2018-03-01T01:00:29.046Z,54.40
2018-03-01T01:02:56.106Z,54.80
2018-03-01T01:05:22.404Z,54.80
2018-03-01T01:07:49.488Z,54.80
2018-03-01T01:10:15.754Z,54.70
2018-03-01T01:12:42.065Z,54.90
2018-03-01T01:15:08.340Z,54.70
2018-03-01T01:17:34.610Z,55.20
2018-03-01T01:20:01.208Z,54.70
2018-03-01T01:22:27.523Z,54.80
2018-03-01T01:25:00.799Z,55.00
2018-03-01T01:27:39.316Z,55.00
2018-03-01T01:30:19.103Z,55.10
2018-03-01T01:32:57.652Z,55.00
2018-03-01T01:35:36.185Z,55.50
2018-03-01T01:38:14.627Z,55.30
2018-03-01T01:40:41.620Z,55.50
2018-03-01T01:43:07.887Z,55.30
2018-03-01T01:45:34.172Z,55.20
2018-03-01T01:48:00.435Z,55.30
2018-03-01T01:50:27.539Z,55.40
2018-03-01T01:52:54.608Z,55.30
2018-03-01T01:55:20.886Z,55.30
2018-03-01T01:57:47.140Z,55.30
2018-03-01T02:00:13.749Z,55.40
2018-03-01T02:02:40.041Z,55.50
2018-03-01T02:05:06.322Z,55.80
2018-03-01T02:07:32.687Z,55.70
2018-03-01T02:09:58.968Z,55.80
2018-03-01T02:12:25.270Z,55.60
2018-03-01T02:14:51.555Z,55.90
2018-03-01T02:17:17.792Z,55.80
2018-03-01T02:19:44.035Z,55.80
2018-03-01T02:22:11.475Z,56.30
2018-03-01T02:24:37.781Z,56.10
2018-03-01T02:27:04.065Z,56.20
2018-03-01T02:29:30.363Z,56.40
2018-03-01T02:31:57.427Z,56.40
2018-03-01T02:34:23.720Z,56.40
2018-03-01T02:36:50.032Z,56.40
2018-03-01T02:39:16.344Z,56.60
2018-03-01T02:41:43.336Z,57.20
2018-03-01T02:44:09.652Z,57.10
2018-03-01T02:46:35.976Z,57.00
2018-03-01T02:49:02.267Z,57.20
2018-03-01T02:51:28.691Z,57.60
2018-03-01T02:53:54.964Z,57.70
2018-03-01T02:56:22.003Z,57.70
2018-03-01T02:58:49.079Z,58.00
2018-03-01T03:01:15.367Z,58.00
2018-03-01T03:03:41.640Z,57.70
2018-03-01T03:06:08.834Z,57.60
2018-03-01T03:08:35.051Z,57.60
2018-03-01T03:11:01.247Z,57.70
2018-03-01T03:13:27.487Z,57.70
2018-03-01T03:15:53.664Z,57.60
2018-03-01T03:18:20.554Z,57.50
2018-03-01T03:20:46.856Z,57.50
2018-03-01T03:23:13.337Z,57.30
2018-03-01T03:25:40.299Z,57.20
2018-03-01T03:28:06.680Z,57.10
2018-03-01T03:30:33.599Z,56.90
2018-03-01T03:32:59.756Z,56.90
2018-03-01T03:35:26.700Z,57.30
2018-03-01T03:38:05.212Z,57.30
2018-03-01T03:40:31.387Z,57.20
2018-03-01T03:42:57.604Z,56.50
2018-03-01T03:45:24.518Z,55.80
2018-03-01T03:47:50.688Z,55.80
2018-03-01T03:50:17.626Z,55.00
2018-03-01T03:52:44.924Z,54.90
2018-03-01T03:55:11.072Z,54.80
2018-03-01T03:57:37.235Z,54.20
2018-03-01T04:00:03.732Z,54.40
2018-03-01T04:02:29.879Z,53.90
2018-03-01T04:04:56.038Z,53.30
2018-03-01T04:07:22.220Z,53.20
2018-03-01T04:09:49.113Z,52.90
2018-03-01T04:12:15.341Z,52.90
2018-03-01T04:14:41.552Z,53.00
2018-03-01T04:17:07.723Z,53.40
2018-03-01T04:19:33.904Z,53.50
2018-03-01T04:22:00.137Z,52.80
2018-03-01T04:24:26.612Z,52.90
2018-03-01T04:26:52.780Z,53.20
2018-03-01T04:29:19.000Z,53.20
2018-03-01T04:31:45.159Z,53.30
2018-03-01T04:34:12.073Z,53.90
2018-03-01T04:36:39.291Z,53.80
2018-03-01T04:39:05.466Z,53.70
2018-03-01T04:41:31.647Z,54.00
2018-03-01T04:43:58.104Z,54.30
2018-03-01T04:46:24.284Z,53.70
2018-03-01T04:48:50.432Z,53.60
2018-03-01T04:51:16.600Z,53.90
2018-03-01T04:53:42.752Z,53.90
2018-03-01T04:56:09.084Z,53.20
2018-03-01T04:58:35.280Z,53.70
2018-03-01T05:01:01.463Z,53.70
2018-03-01T05:03:27.716Z,54.10
2018-03-01T05:05:53.928Z,54.60
2018-03-01T05:08:20.080Z,54.70
2018-03-01T05:10:46.280Z,54.90
2018-03-01T05:13:12.431Z,55.00
2018-03-01T05:15:38.580Z,55.00
2018-03-01T05:18:04.800Z,55.30
2018-03-01T05:20:31.004Z,55.20
2018-03-01T05:22:57.179Z,55.60
2018-03-01T05:25:24.412Z,55.70
2018-03-01T05:27:50.606Z,55.70
2018-03-01T05:30:16.755Z,56.00
2018-03-01T05:32:43.121Z,56.30
2018-03-01T05:35:09.307Z,56.30
2018-03-01T05:37:36.200Z,56.20
2018-03-01T05:40:02.391Z,56.20
2018-03-01T05:42:28.560Z,56.60
2018-03-01T05:44:54.732Z,56.60
2018-03-01T05:47:20.888Z,57.10
2018-03-01T05:49:47.074Z,57.30
2018-03-01T05:52:14.127Z,57.50
2018-03-01T05:54:40.331Z,57.60
2018-03-01T05:57:06.487Z,58.20
2018-03-01T05:59:32.651Z,58.10
2018-03-01T06:02:04.811Z,58.30
2018-03-01T06:04:32.465Z,58.90
2018-03-01T06:06:58.645Z,58.90
2018-03-01T06:09:24.813Z,59.20
2018-03-01T06:11:50.984Z,59.10
2018-03-01T06:14:17.147Z,59.50
2018-03-01T06:16:43.328Z,59.30
2018-03-01T06:19:09.500Z,58.90
2018-03-01T06:21:36.405Z,59.30
2018-03-01T06:24:02.571Z,59.30
2018-03-01T06:26:29.994Z,59.50
2018-03-01T06:28:56.144Z,59.50
2018-03-01T06:31:23.065Z,60.20
2018-03-01T06:33:49.252Z,59.90
2018-03-01T06:36:15.429Z,60.20
2018-03-01T06:38:41.744Z,60.30
2018-03-01T06:41:08.936Z,60.40
2018-03-01T06:43:35.072Z,60.40
2018-03-01T06:46:01.272Z,60.00
2018-03-01T06:48:27.531Z,60.00
2018-03-01T06:50:53.697Z,60.30
2018-03-01T06:53:19.905Z,60.20
2018-03-01T06:55:46.097Z,59.80
2018-03-01T06:58:12.280Z,59.70
2018-03-01T07:00:39.227Z,59.80
2018-03-01T07:03:05.440Z,59.80
2018-03-01T07:05:31.604Z,59.50
2018-03-01T07:07:57.760Z,59.80
2018-03-01T07:10:24.981Z,58.80
2018-03-01T07:12:51.919Z,58.40
2018-03-01T07:15:18.091Z,58.30
2018-03-01T07:17:45.053Z,57.80
2018-03-01T07:20:11.968Z,57.90
2018-03-01T07:22:38.154Z,57.90
2018-03-01T07:25:05.077Z,57.50
2018-03-01T07:27:31.433Z,57.60
2018-03-01T07:29:58.351Z,57.50
2018-03-01T07:32:25.320Z,57.70
2018-03-01T07:34:51.507Z,57.60
2018-03-01T07:37:17.684Z,57.10
2018-03-01T07:39:43.833Z,56.70
2018-03-01T07:42:09.971Z,56.10
2018-03-01T07:44:36.888Z,54.60
2018-03-01T07:47:03.102Z,54.60
2018-03-01T07:49:29.645Z,53.70
2018-03-01T07:51:55.805Z,53.00
2018-03-01T07:54:22.734Z,52.30
2018-03-01T07:56:49.877Z,51.10
2018-03-01T07:59:16.052Z,51.10
2018-03-01T08:01:42.236Z,51.30
2018-03-01T08:04:08.411Z,50.90
2018-03-01T08:06:34.545Z,50.10
2018-03-01T08:09:00.715Z,49.90
2018-03-01T08:11:27.076Z,48.90
2018-03-01T08:13:53.236Z,48.00
2018-03-01T08:16:19.423Z,46.70
2018-03-01T08:18:45.597Z,45.30
2018-03-01T08:21:11.947Z,44.60
2018-03-01T08:23:38.158Z,43.40
2018-03-01T08:26:04.360Z,41.40
2018-03-01T08:28:30.888Z,40.00
2018-03-01T08:30:57.788Z,39.60
2018-03-01T08:33:23.956Z,39.50
2018-03-01T08:35:50.146Z,39.00
2018-03-01T08:38:16.292Z,37.80
2018-03-01T08:40:42.448Z,35.50
2018-03-01T08:43:08.631Z,33.70
2018-03-01T08:45:34.800Z,33.20
2018-03-01T08:48:01.004Z,34.30
2018-03-01T08:50:28.184Z,35.50
2018-03-01T08:52:54.349Z,36.60
2018-03-01T08:55:20.543Z,37.00
2018-03-01T08:57:46.725Z,36.90
2018-03-01T09:00:13.607Z,33.80
2018-03-01T09:02:39.788Z,33.80
2018-03-01T09:05:05.952Z,30.90
2018-03-01T09:07:32.124Z,28.40
2018-03-01T09:09:58.300Z,29.30
2018-03-01T09:12:24.524Z,32.30
2018-03-01T09:14:51.442Z,33.20
2018-03-01T09:17:17.612Z,33.10
2018-03-01T09:19:43.805Z,33.80
2018-03-01T09:22:10.012Z,34.30
2018-03-01T09:24:36.187Z,33.50
2018-03-01T09:27:02.348Z,34.00
2018-03-01T09:29:28.850Z,34.80
2018-03-01T09:31:55.037Z,34.60
2018-03-01T09:34:21.225Z,32.00
2018-03-01T09:36:48.199Z,32.00
2018-03-01T09:39:15.191Z,32.40
2018-03-01T09:41:41.365Z,32.30
2018-03-01T09:44:07.629Z,32.40
2018-03-01T09:46:34.561Z,29.70
2018-03-01T09:49:01.004Z,29.60
2018-03-01T09:51:27.187Z,28.30
2018-03-01T09:53:53.351Z,27.60
2018-03-01T09:56:19.540Z,27.40
2018-03-01T09:58:45.720Z,26.90
2018-03-01T10:01:11.918Z,28.10
2018-03-01T10:03:38.077Z,27.70
2018-03-01T10:06:04.253Z,28.20
2018-03-01T10:08:30.788Z,28.40
2018-03-01T10:10:56.931Z,28.70
2018-03-01T10:13:23.824Z,28.60
2018-03-01T10:15:50.034Z,28.50
2018-03-01T10:18:16.200Z,27.50
2018-03-01T10:20:42.347Z,25.40
2018-03-01T10:23:08.567Z,26.10
2018-03-01T10:25:35.508Z,27.70
2018-03-01T10:28:01.711Z,27.70
2018-03-01T10:30:28.184Z,27.40
2018-03-01T10:32:54.376Z,27.60
2018-03-01T10:35:21.273Z,27.20
2018-03-01T10:37:47.460Z,27.20
2018-03-01T10:40:13.629Z,27.10
2018-03-01T10:42:39.804Z,26.80
2018-03-01T10:45:06.006Z,26.70
2018-03-01T10:47:32.232Z,26.30
2018-03-01T10:49:58.404Z,26.50
2018-03-01T10:52:24.579Z,27.20
2018-03-01T10:54:50.745Z,28.40
2018-03-01T10:57:16.919Z,27.40
2018-03-01T10:59:43.115Z,26.80
2018-03-01T11:02:10.144Z,26.10
2018-03-01T11:04:36.692Z,26.00
2018-03-01T11:07:02.855Z,26.30
2018-03-01T11:09:29.008Z,25.50
2018-03-01T11:11:55.195Z,25.20
2018-03-01T11:14:21.351Z,25.80
2018-03-01T11:16:47.520Z,26.30
2018-03-01T11:19:14.460Z,23.70
2018-03-01T11:21:41.396Z,22.40
2018-03-01T11:24:08.310Z,22.40
2018-03-01T11:26:34.499Z,21.90
2018-03-01T11:29:01.412Z,24.50
2018-03-01T11:31:27.752Z,24.40
2018-03-01T11:33:53.952Z,24.20
2018-03-01T11:36:20.116Z,24.70
2018-03-01T11:38:46.273Z,25.00
2018-03-01T11:41:12.560Z,24.70
2018-03-01T11:43:38.725Z,23.60
2018-03-01T11:46:05.621Z,24.80
2018-03-01T11:48:31.785Z,24.80
2018-03-01T11:50:58.762Z,27.30
2018-03-01T11:53:25.680Z,26.70
2018-03-01T11:55:51.876Z,26.90
2018-03-01T11:58:18.806Z,27.00
2018-03-01T12:00:44.968Z,27.00
2018-03-01T12:03:12.152Z,26.80
2018-03-01T12:05:38.363Z,26.80
2018-03-01T12:08:04.558Z,26.50
2018-03-01T12:10:30.794Z,26.30
2018-03-01T12:12:56.885Z,25.50
2018-03-01T12:15:23.048Z,26.10
2018-03-01T12:17:49.224Z,27.10
2018-03-01T12:20:15.364Z,26.80
2018-03-01T12:22:41.841Z,26.70
2018-03-01T12:25:08.004Z,26.70
2018-03-01T12:27:34.901Z,27.10
2018-03-01T12:30:01.104Z,27.10
2018-03-01T12:32:27.337Z,27.40
2018-03-01T12:34:54.240Z,28.30
2018-03-01T12:37:20.408Z,28.30
2018-03-01T12:39:47.311Z,27.90
2018-03-01T12:42:13.474Z,27.80
2018-03-01T12:44:39.669Z,28.40
2018-03-01T12:47:05.824Z,28.30
2018-03-01T12:49:32.332Z,28.30
2018-03-01T12:51:58.515Z,28.10
2018-03-01T12:54:24.688Z,28.40
2018-03-01T12:56:51.658Z,28.00
2018-03-01T12:59:17.941Z,28.00
2018-03-01T13:01:44.119Z,27.80
2018-03-01T13:04:10.328Z,27.80
2018-03-01T13:06:36.559Z,28.50
2018-03-01T13:09:03.480Z,29.70
2018-03-01T13:11:29.700Z,29.60
2018-03-01T13:13:55.868Z,29.50
2018-03-01T13:16:22.796Z,30.00
2018-03-01T13:18:48.989Z,29.90
2018-03-01T13:21:17.743Z,30.30
2018-03-01T13:23:47.410Z,30.90
2018-03-01T13:26:13.612Z,31.70
2018-03-01T13:28:40.519Z,32.40
2018-03-01T13:31:10.743Z,32.40
2018-03-01T13:33:38.004Z,32.20
2018-03-01T13:36:04.159Z,32.30
2018-03-01T13:38:31.099Z,33.90
2018-03-01T13:40:57.288Z,33.90
2018-03-01T13:43:25.447Z,35.40
2018-03-01T13:45:52.569Z,36.00
2018-03-01T13:48:18.753Z,35.60
2018-03-01T13:50:44.952Z,36.20
2018-03-01T13:53:11.133Z,37.40
2018-03-01T13:55:38.028Z,37.20
2018-03-01T13:58:07.195Z,37.20
2018-03-01T14:00:33.408Z,36.80
2018-03-01T14:02:59.596Z,36.80
2018-03-01T14:05:25.794Z,37.60
2018-03-01T14:08:00.352Z,37.70
2018-03-01T14:10:26.546Z,37.60
2018-03-01T14:12:58.776Z,37.30
2018-03-01T14:15:25.258Z,37.60
2018-03-01T14:17:56.272Z,38.10
2018-03-01T14:20:28.508Z,38.20
2018-03-01T14:26:01.709Z,39.00
2018-03-01T14:28:31.772Z,38.90
2018-03-01T14:30:57.943Z,39.40
2018-03-01T14:33:24.175Z,39.70
2018-03-01T14:35:51.244Z,39.40
2018-03-01T14:38:17.416Z,39.30
2018-03-01T14:40:43.880Z,39.30
2018-03-01T14:43:10.032Z,39.90
2018-03-01T14:45:36.408Z,40.90
2018-03-01T14:48:03.309Z,41.60
2018-03-01T14:50:29.478Z,41.60
2018-03-01T14:52:55.630Z,42.50
2018-03-01T14:55:22.857Z,41.70
2018-03-01T14:57:49.012Z,41.70
2018-03-01T15:00:15.176Z,42.30
2018-03-01T15:02:41.380Z,42.00
2018-03-01T15:05:07.572Z,43.30
2018-03-01T15:07:33.722Z,43.70
2018-03-01T15:10:01.348Z,43.70
2018-03-01T15:12:27.528Z,43.20
2018-03-01T15:14:54.796Z,44.30
2018-03-01T15:17:20.962Z,44.30
2018-03-01T15:19:47.164Z,44.40
2018-03-01T15:22:13.348Z,45.20
2018-03-01T15:24:39.549Z,45.50
2018-03-01T15:27:05.740Z,46.00
2018-03-01T15:29:31.910Z,46.40
2018-03-01T15:31:58.850Z,46.80
2018-03-01T15:34:25.043Z,46.80
2018-03-01T15:36:51.408Z,46.70
2018-03-01T15:39:17.617Z,47.40
2018-03-01T15:41:43.805Z,47.60
2018-03-01T15:44:10.712Z,47.00
2018-03-01T15:46:36.860Z,47.30
2018-03-01T15:49:03.036Z,47.40
2018-03-01T15:51:29.192Z,48.20
2018-03-01T15:53:55.360Z,47.80
2018-03-01T15:56:21.547Z,47.90
2018-03-01T15:58:47.767Z,50.20
2018-03-01T16:01:13.958Z,48.80
2018-03-01T16:03:40.113Z,48.30
2018-03-01T16:06:07.057Z,48.30
2018-03-01T16:08:34.021Z,48.30
2018-03-01T16:11:00.908Z,48.30
2018-03-01T16:13:27.350Z,48.30
2018-03-01T16:15:53.509Z,48.60
2018-03-01T16:18:19.693Z,48.60
2018-03-01T16:20:45.856Z,48.80
2018-03-01T16:23:12.001Z,48.80
2018-03-01T16:25:38.177Z,49.00
2018-03-01T16:28:04.340Z,49.30
2018-03-01T16:30:30.526Z,49.70
2018-03-01T16:32:56.760Z,50.20
2018-03-01T16:35:22.920Z,50.50
2018-03-01T16:37:49.400Z,50.50
2018-03-01T16:40:15.554Z,50.80
2018-03-01T16:42:41.748Z,50.90
2018-03-01T16:45:07.934Z,51.10
2018-03-01T16:47:34.848Z,51.30
2018-03-01T16:50:01.055Z,51.30
2018-03-01T16:52:27.241Z,51.60
2018-03-01T16:54:54.161Z,52.20
2018-03-01T16:57:20.332Z,52.20
2018-03-01T16:59:46.524Z,52.50
2018-03-01T17:02:12.701Z,52.60
2018-03-01T17:04:38.880Z,52.70
2018-03-01T17:07:05.046Z,53.00
2018-03-01T17:09:31.196Z,53.00
2018-03-01T17:11:57.356Z,52.80
2018-03-01T17:14:24.311Z,53.20
2018-03-01T17:16:50.479Z,53.20
2018-03-01T17:19:16.656Z,53.40
2018-03-01T17:21:42.823Z,53.50
2018-03-01T17:24:08.960Z,53.50
2018-03-01T17:26:35.124Z,54.50
2018-03-01T17:29:01.637Z,53.90
2018-03-01T17:31:27.848Z,54.10
2018-03-01T17:33:54.009Z,54.30
2018-03-01T17:36:20.612Z,54.90
2018-03-01T17:38:47.124Z,54.60
2018-03-01T17:41:13.292Z,54.70
2018-03-01T17:43:39.483Z,55.00
2018-03-01T17:46:06.409Z,55.10
2018-03-01T17:48:32.675Z,55.10
2018-03-01T17:50:59.078Z,55.30
2018-03-01T17:53:25.228Z,55.70
2018-03-01T17:55:51.396Z,55.90
2018-03-01T17:58:18.372Z,55.90
2018-03-01T18:00:45.293Z,56.10
2018-03-01T18:03:11.476Z,56.10
2018-03-01T18:05:37.826Z,56.50
2018-03-01T18:08:03.992Z,56.20
2018-03-01T18:10:30.164Z,56.30
2018-03-01T18:12:56.568Z,56.30
2018-03-01T18:15:22.789Z,57.40
2018-03-01T18:17:49.050Z,57.30
2018-03-01T18:20:15.268Z,56.60
2018-03-01T18:22:42.184Z,56.90
2018-03-01T18:25:09.371Z,56.90
2018-03-01T18:27:35.985Z,56.80
2018-03-01T18:30:02.152Z,56.80
2018-03-01T18:32:28.509Z,56.90
2018-03-01T18:34:54.713Z,57.10
2018-03-01T18:37:20.900Z,56.90
2018-03-01T18:39:48.002Z,57.60
2018-03-01T18:42:14.184Z,57.60
2018-03-01T18:44:40.376Z,57.80
2018-03-01T18:47:07.340Z,57.70
2018-03-01T18:49:34.241Z,57.80
2018-03-01T18:52:00.452Z,57.70
2018-03-01T18:54:26.615Z,58.20
2018-03-01T18:56:52.794Z,58.00
2018-03-01T18:59:19.012Z,57.70
2018-03-01T19:01:45.187Z,58.00
2018-03-01T19:04:11.383Z,58.20
2018-03-01T19:06:37.607Z,58.40
2018-03-01T19:09:03.767Z,58.70
2018-03-01T19:11:30.695Z,58.90
2018-03-01T19:13:57.097Z,58.90
2018-03-01T19:16:23.256Z,58.80
2018-03-01T19:18:49.431Z,59.20
2018-03-01T19:21:15.643Z,59.40
2018-03-01T19:23:43.428Z,60.20
2018-03-01T19:26:10.331Z,59.60
2018-03-01T19:28:43.485Z,59.60
2018-03-01T19:31:09.692Z,59.50
2018-03-01T19:33:35.861Z,59.80
2018-03-01T19:36:02.076Z,59.70
2018-03-01T19:38:29.008Z,60.10
2018-03-01T19:40:55.578Z,60.00
2018-03-01T19:43:21.748Z,59.90
2018-03-01T19:45:47.960Z,60.00
2018-03-01T19:48:14.163Z,60.20
2018-03-01T19:50:40.362Z,61.30
2018-03-01T19:53:06.557Z,60.90
2018-03-01T19:55:32.744Z,62.80
2018-03-01T19:57:58.919Z,61.40
2018-03-01T20:00:26.000Z,61.10
2018-03-01T20:02:52.164Z,61.20
2018-03-01T20:05:18.405Z,61.20
2018-03-01T20:07:45.321Z,61.40
2018-03-01T20:10:11.540Z,61.30
2018-03-01T20:12:37.703Z,61.20
2018-03-01T20:15:03.902Z,61.50
2018-03-01T20:17:30.137Z,61.50
2018-03-01T20:19:57.112Z,62.00
2018-03-01T20:22:23.341Z,61.80
2018-03-01T20:24:51.054Z,62.70
2018-03-01T20:27:17.980Z,62.50
2018-03-01T20:29:44.160Z,62.50
2018-03-01T20:32:10.336Z,62.50
2018-03-01T20:34:36.540Z,62.20
2018-03-01T20:37:02.703Z,62.40
2018-03-01T20:39:29.669Z,63.40
2018-03-01T20:41:56.657Z,62.70
2018-03-01T20:44:22.804Z,62.60
2018-03-01T20:46:49.080Z,63.00
2018-03-01T20:49:16.010Z,63.40
2018-03-01T20:51:42.224Z,63.40
2018-03-01T20:54:08.396Z,63.70
2018-03-01T20:56:35.343Z,63.50
2018-03-01T20:59:01.915Z,63.50
2018-03-01T21:01:28.816Z,63.80
2018-03-01T21:03:55.024Z,63.80
2018-03-01T21:06:21.272Z,63.90
2018-03-01T21:08:48.991Z,64.40
2018-03-01T21:11:15.162Z,64.30
2018-03-01T21:13:41.360Z,64.30
2018-03-01T21:16:08.348Z,64.60
2018-03-01T21:18:34.534Z,64.60
2018-03-01T21:21:00.722Z,64.80
2018-03-01T21:23:26.912Z,64.90
2018-03-01T21:25:53.820Z,65.30
2018-03-01T21:28:20.032Z,65.20
2018-03-01T21:30:46.262Z,65.20
2018-03-01T21:33:12.484Z,65.30
2018-03-01T21:35:39.413Z,65.80
2018-03-01T21:38:06.441Z,66.20
2018-03-01T21:40:32.626Z,66.20
2018-03-01T21:42:59.038Z,66.40
2018-03-01T21:45:25.237Z,66.30
2018-03-01T21:47:51.503Z,66.30
2018-03-01T21:50:17.707Z,66.80
2018-03-01T21:52:43.873Z,66.70
2018-03-01T21:55:10.061Z,66.80
2018-03-01T21:57:36.236Z,66.80
2018-03-01T22:00:02.416Z,67.00
2018-03-01T22:02:28.652Z,66.90
2018-03-01T22:04:54.859Z,67.20
2018-03-01T22:07:21.759Z,67.60
2018-03-01T22:09:48.011Z,67.50
2018-03-01T22:12:14.212Z,67.70
2018-03-01T22:14:40.397Z,67.80
2018-03-01T22:17:06.646Z,68.00
2018-03-01T22:19:33.556Z,68.10
2018-03-01T22:21:59.704Z,67.90
2018-03-01T22:24:25.960Z,68.30
2018-03-01T22:26:52.871Z,67.80
2018-03-01T22:29:19.084Z,68.20
2018-03-01T22:31:45.292Z,68.30
2018-03-01T22:34:11.476Z,68.20
2018-03-01T22:36:38.833Z,68.30
2018-03-01T22:39:05.018Z,68.30
2018-03-01T22:41:31.923Z,68.70
2018-03-01T22:43:58.878Z,68.60
2018-03-01T22:46:25.080Z,68.60
2018-03-01T22:48:51.295Z,69.10
2018-03-01T22:51:17.800Z,68.80
2018-03-01T22:53:44.775Z,68.90
2018-03-01T22:56:11.715Z,68.80
2018-03-01T22:58:38.816Z,69.10
2018-03-01T23:01:04.980Z,69.10
2018-03-01T23:03:31.925Z,68.80
2018-03-01T23:05:58.131Z,68.80
2018-03-01T23:08:24.308Z,68.90
2018-03-01T23:10:50.527Z,69.10
2018-03-01T23:13:16.725Z,69.20
2018-03-01T23:15:42.916Z,69.30
2018-03-01T23:18:10.544Z,69.60
2018-03-01T23:20:36.728Z,69.60
2018-03-01T23:23:03.627Z,69.60
2018-03-01T23:25:29.807Z,69.50
2018-03-01T23:27:56.080Z,69.70
2018-03-01T23:30:22.228Z,69.40
2018-03-01T23:32:48.583Z,70.00
2018-03-01T23:35:14.772Z,69.70
2018-03-01T23:37:40.940Z,69.40
2018-03-01T23:40:07.122Z,69.60
2018-03-01T23:42:33.335Z,69.80
